Time;durP1;ratioP1;P1;durP2;ratioP2;P2;SDS_P1;SDS_P2;PMS_P1;PMS_P2;Temp;Humidity;BMP_temperature;BMP_pressure;BME280_temperature;BME280_humidity;BME280_pressure;Samples;Min_cycle;Max_cycle;Signal;HPM_P1;HPM_P2
2024/02/22 00:01:11;;;;;;;19.90;10.68;;;;;;;9.36;72.26;100640.25;5093325;28;20071;-81
2024/02/22 00:04:16;;;;;;;18.83;10.43;;;;;;;9.16;72.49;100632.91;5095187;28;20051;-81
2024/02/22 00:07:21;;;;;;;18.85;10.60;;;;;;;9.28;72.18;100623.94;5084609;28;20047;-81
2024/02/22 00:10:29;;;;;;;19.38;11.05;;;;;;;9.39;71.73;100618.56;5096790;28;20489;-82
2024/02/22 00:13:34;;;;;;;18.02;10.30;;;;;;;9.41;71.79;100616.63;5096952;28;20090;-82
2024/02/22 00:16:39;;;;;;;14.63;8.95;;;;;;;9.09;72.54;100616.47;5096705;28;20071;-82
2024/02/22 00:19:43;;;;;;;18.75;10.30;;;;;;;9.16;72.52;100606.13;5096842;28;20062;-81
2024/02/22 00:22:48;;;;;;;15.15;8.93;;;;;;;9.07;72.75;100607.72;5096668;28;20051;-83
2024/02/22 00:25:52;;;;;;;15.80;9.23;;;;;;;9.23;71.80;100603.84;5086881;28;20047;-82
2024/02/22 00:28:56;;;;;;;14.90;9.07;;;;;;;9.46;71.24;100601.03;5088577;28;20063;-83
2024/02/22 00:32:01;;;;;;;15.52;9.38;;;;;;;9.33;71.34;100592.28;5096728;28;20051;-84
2024/02/22 00:35:06;;;;;;;14.23;9.00;;;;;;;9.47;70.92;100591.19;5096682;28;20066;-82
2024/02/22 00:38:11;;;;;;;13.60;8.57;;;;;;;9.25;71.05;100596.53;5096038;28;20055;-83
2024/02/22 00:41:15;;;;;;;16.38;9.65;;;;;;;9.33;71.10;100578.91;5095696;28;20114;-82
2024/02/22 00:44:19;;;;;;;14.80;8.88;;;;;;;9.42;70.48;100580.84;5084047;28;20055;-83
2024/02/22 00:47:24;;;;;;;15.93;8.88;;;;;;;9.54;70.48;100570.97;5096459;28;20380;-83
2024/02/22 00:50:28;;;;;;;13.35;8.10;;;;;;;9.68;70.44;100566.19;5095584;28;20048;-83
2024/02/22 00:53:32;;;;;;;31.73;15.82;;;;;;;9.52;70.99;100567.56;5096719;28;20055;-83
2024/02/22 00:56:37;;;;;;;25.75;14.35;;;;;;;9.63;70.99;100568.38;5083877;28;20059;-84
2024/02/22 00:59:42;;;;;;;26.67;14.15;;;;;;;9.57;70.68;100558.19;5096242;28;20059;-83
2024/02/22 01:02:46;;;;;;;23.17;11.80;;;;;;;9.61;70.46;100564.13;5096259;28;20071;-83
2024/02/22 01:05:51;;;;;;;22.65;12.07;;;;;;;9.66;70.40;100549.38;5096279;28;20051;-83
2024/02/22 01:08:55;;;;;;;20.02;9.98;;;;;;;9.63;70.83;100554.13;5083527;28;20360;-83
2024/02/22 01:12:00;;;;;;;17.73;10.27;;;;;;;9.70;70.33;100548.16;5095924;28;20481;-83
2024/02/22 01:15:06;;;;;;;24.05;13.02;;;;;;;9.89;70.01;100543.97;5095341;28;20051;-82
2024/02/22 01:18:10;;;;;;;17.63;10.38;;;;;;;9.99;69.27;100553.84;5083294;28;20058;-82
2024/02/22 01:21:14;;;;;;;14.63;9.15;;;;;;;9.68;69.97;100551.94;5095831;28;20390;-82
2024/02/22 01:24:19;;;;;;;14.20;8.60;;;;;;;9.72;70.17;100554.28;5095647;28;20054;-84
2024/02/22 01:27:23;;;;;;;14.65;8.98;;;;;;;9.88;70.10;100540.44;5095743;28;20065;-83
2024/02/22 01:30:28;;;;;;;16.33;9.18;;;;;;;9.87;69.63;100528.03;5095812;28;20047;-82
2024/02/22 01:33:32;;;;;;;22.05;9.20;;;;;;;9.93;69.43;100532.88;5095502;28;20497;-84
2024/02/22 01:36:36;;;;;;;18.13;10.38;;;;;;;9.81;70.91;100534.75;5095549;28;20044;-83
2024/02/22 01:39:42;;;;;;;17.75;10.15;;;;;;;10.03;69.99;100528.47;5095664;28;20050;-83
2024/02/22 01:42:47;;;;;;;17.45;9.00;;;;;;;10.11;69.40;100519.78;5095480;28;20040;-82
2024/02/22 01:45:51;;;;;;;16.88;10.13;;;;;;;10.19;69.21;100518.22;5082957;28;20043;-84
2024/02/22 01:48:56;;;;;;;19.10;9.88;;;;;;;10.07;69.84;100507.63;5094722;28;20047;-84
2024/02/22 01:52:04;;;;;;;20.80;9.85;;;;;;;10.06;69.88;100501.41;5095272;28;20478;-81
2024/02/22 01:55:10;;;;;;;18.60;9.15;;;;;;;10.08;69.64;100499.44;5095226;28;20489;-82
2024/02/22 01:58:16;;;;;;;18.25;9.48;;;;;;;9.98;70.58;100489.59;5099603;28;20047;-81
2024/02/22 02:01:22;;;;;;;21.05;9.80;;;;;;;10.09;70.50;100476.16;5097322;28;20051;-81
2024/02/22 02:04:28;;;;;;;18.35;9.13;;;;;;;10.08;70.56;100466.38;5097193;28;20051;-81
2024/02/22 02:07:36;;;;;;;19.67;10.85;;;;;;;10.12;71.12;100467.88;5096685;28;20051;-81
2024/02/22 02:10:41;;;;;;;19.30;10.80;;;;;;;9.93;71.59;100467.66;5095877;28;20052;-81
2024/02/22 02:13:46;;;;;;;19.77;10.85;;;;;;;9.87;72.70;100457.47;5096844;28;20051;-84
2024/02/22 02:16:50;;;;;;;22.85;12.45;;;;;;;9.78;73.56;100449.22;5094674;28;20057;-83
2024/02/22 02:19:56;;;;;;;20.88;11.93;;;;;;;9.75;74.04;100444.09;5094758;28;20054;-82
2024/02/22 02:23:12;;;;;;;21.27;11.95;;;;;;;9.98;73.16;100433.28;5094361;28;20055;-82
2024/02/22 02:26:17;;;;;;;20.67;10.80;;;;;;;10.13;72.80;100427.50;5094803;28;20078;-82
2024/02/22 02:29:24;;;;;;;18.75;10.40;;;;;;;10.17;72.71;100418.22;5094606;28;20048;-83
2024/02/22 02:32:29;;;;;;;22.13;11.20;;;;;;;10.12;73.57;100409.72;5111324;28;20043;-83
2024/02/22 02:35:37;;;;;;;19.75;11.50;;;;;;;10.15;73.18;100405.91;5114431;28;20040;-83
2024/02/22 02:38:41;;;;;;;21.15;11.48;;;;;;;10.11;72.74;100404.44;5114712;28;20382;-82
2024/02/22 02:41:46;;;;;;;25.55;11.98;;;;;;;10.18;72.87;100402.97;5114559;28;20051;-82
2024/02/22 02:44:51;;;;;;;20.95;11.00;;;;;;;10.37;72.41;100400.41;5108763;28;20040;-82
2024/02/22 02:47:55;;;;;;;21.25;10.98;;;;;;;10.38;72.44;100402.97;5114284;28;20039;-83
2024/02/22 02:51:00;;;;;;;20.67;11.07;;;;;;;10.43;71.91;100400.75;5114572;28;20036;-82
2024/02/22 02:54:04;;;;;;;18.90;10.80;;;;;;;10.54;72.21;100397.16;5114558;28;20454;-82
2024/02/22 02:57:10;;;;;;;18.10;11.10;;;;;;;10.30;72.89;100407.28;5114329;28;20036;-82
2024/02/22 03:00:14;;;;;;;21.25;10.45;;;;;;;10.19;73.29;100416.28;5114412;28;20390;-82
2024/02/22 03:03:19;;;;;;;17.00;9.40;;;;;;;10.27;72.65;100415.63;5114619;28;20039;-81
2024/02/22 03:06:23;;;;;;;18.13;9.65;;;;;;;10.23;72.75;100417.72;5114339;28;20067;-81
2024/02/22 03:09:27;;;;;;;15.93;8.60;;;;;;;10.31;72.47;100409.00;5114251;28;20062;-84
2024/02/22 03:12:32;;;;;;;21.63;9.30;;;;;;;10.04;72.78;100416.69;5114386;28;20055;-83
2024/02/22 03:15:37;;;;;;;17.85;9.05;;;;;;;10.29;71.50;100411.81;5114235;28;20054;-81
2024/02/22 03:18:41;;;;;;;19.05;8.23;;;;;;;10.51;71.24;100407.28;5101540;28;20063;-82
2024/02/22 03:21:45;;;;;;;17.58;8.82;;;;;;;10.53;70.64;100397.25;5114557;28;20090;-82
2024/02/22 03:24:50;;;;;;;19.30;9.98;;;;;;;10.39;71.08;100395.78;5114076;28;20362;-81
2024/02/22 03:28:00;;;;;;;16.35;9.57;;;;;;;10.45;71.52;100416.72;5114167;28;20145;-82
2024/02/22 03:31:07;;;;;;;16.90;9.45;;;;;;;10.54;71.64;100425.81;5114243;28;20089;-82
2024/02/22 03:34:11;;;;;;;25.60;10.85;;;;;;;10.38;71.95;100415.53;5114120;28;20066;-82
2024/02/22 03:37:17;;;;;;;21.15;12.65;;;;;;;10.49;72.76;100402.06;5114218;28;20039;-83
2024/02/22 03:40:22;;;;;;;18.02;11.70;;;;;;;10.40;73.92;100402.84;5117939;28;20059;-84
2024/02/22 03:43:27;;;;;;;25.75;13.27;;;;;;;10.39;73.97;100407.34;5118255;28;20040;-83
2024/02/22 03:46:32;;;;;;;22.23;12.38;;;;;;;10.51;74.05;100399.22;5118017;28;20095;-84
2024/02/22 03:49:37;;;;;;;20.63;13.23;;;;;;;10.61;73.61;100401.00;5117256;28;20494;-84
2024/02/22 03:52:42;;;;;;;29.63;15.60;;;;;;;10.65;73.99;100393.50;5117879;28;20471;-83
2024/02/22 03:55:47;;;;;;;33.25;17.15;;;;;;;10.49;76.64;100385.09;5117289;28;20047;-83
2024/02/22 03:58:51;;;;;;;29.73;17.08;;;;;;;10.64;76.50;100367.66;5117741;28;20048;-83
2024/02/22 04:01:56;;;;;;;27.63;15.35;;;;;;;10.81;76.11;100337.50;5117909;28;20043;-86
2024/02/22 04:05:01;;;;;;;35.85;18.77;;;;;;;10.83;76.41;100335.50;5117716;28;20055;-85
2024/02/22 04:08:06;;;;;;;37.25;18.50;;;;;;;10.88;75.63;100339.50;5116928;28;20044;-83
2024/02/22 04:11:11;;;;;;;35.20;19.00;;;;;;;10.88;75.56;100326.06;5117528;28;20470;-83
2024/02/22 04:14:16;;;;;;;34.67;17.88;;;;;;;10.82;75.75;100315.00;5117458;28;20394;-82
2024/02/22 04:17:20;;;;;;;37.67;19.98;;;;;;;10.79;76.01;100305.38;5117415;28;20035;-82
2024/02/22 04:20:25;;;;;;;35.10;18.48;;;;;;;10.69;77.08;100301.00;5117389;28;20039;-85
2024/02/22 04:23:29;;;;;;;40.55;18.88;;;;;;;10.78;76.79;100303.72;5117288;28;20386;-81
2024/02/22 04:26:47;;;;;;;38.83;19.52;;;;;;;10.70;76.25;100289.25;5117541;28;20474;-82
2024/02/22 04:29:53;;;;;;;33.65;18.50;;;;;;;10.99;75.26;100293.72;5117161;28;20039;-84
2024/02/22 04:32:58;;;;;;;31.40;17.45;;;;;;;11.02;75.63;100301.50;5117385;28;20040;-83
2024/02/22 04:36:03;;;;;;;34.45;18.70;;;;;;;10.95;75.73;100296.81;5104448;28;20039;-83
2024/02/22 04:39:09;;;;;;;36.30;18.83;;;;;;;10.88;75.81;100299.22;5117037;28;20044;-82
2024/02/22 04:42:15;;;;;;;32.75;18.48;;;;;;;10.95;76.10;100300.34;5116856;28;20032;-83
2024/02/22 04:45:20;;;;;;;34.40;18.38;;;;;;;10.99;76.34;100285.66;5116616;28;20035;-82
2024/02/22 04:48:25;;;;;;;38.05;20.42;;;;;;;10.78;77.34;100284.06;5115295;28;20047;-81
2024/02/22 04:51:31;;;;;;;33.95;18.45;;;;;;;10.86;76.97;100286.91;5115734;28;20047;-81
2024/02/22 04:54:36;;;;;;;31.80;18.27;;;;;;;10.95;76.38;100291.44;5116618;28;20043;-82
2024/02/22 04:57:40;;;;;;;40.38;20.52;;;;;;;10.96;76.39;100288.59;5104211;28;20044;-82
2024/02/22 05:00:46;;;;;;;36.60;19.55;;;;;;;10.92;76.57;100284.50;5116737;28;20051;-82
2024/02/22 05:03:51;;;;;;;38.33;20.50;;;;;;;11.02;76.19;100279.16;5116524;28;20052;-82
2024/02/22 05:06:57;;;;;;;37.90;20.42;;;;;;;11.02;75.70;100277.31;5116431;28;20047;-83
2024/02/22 05:10:03;;;;;;;37.03;19.92;;;;;;;11.07;76.18;100284.97;5116471;28;20048;-83
2024/02/22 05:13:08;;;;;;;34.80;19.20;;;;;;;11.14;74.78;100278.03;5116232;28;20044;-84
2024/02/22 05:16:14;;;;;;;31.80;18.92;;;;;;;11.14;74.74;100272.66;5116285;28;20470;-81
2024/02/22 05:19:19;;;;;;;32.53;18.60;;;;;;;11.08;75.74;100274.06;5115567;28;20043;-81
2024/02/22 05:22:25;;;;;;;36.10;19.00;;;;;;;10.99;77.22;100277.59;5116326;28;20052;-84
2024/02/22 05:25:30;;;;;;;41.22;21.42;;;;;;;10.96;77.53;100277.88;5116188;28;20036;-83
2024/02/22 05:28:34;;;;;;;42.85;19.88;;;;;;;10.96;76.56;100267.13;5116152;28;20035;-82
2024/02/22 05:31:39;;;;;;;43.05;20.98;;;;;;;10.98;74.84;100265.19;5116186;28;20048;-83
2024/02/22 05:34:43;;;;;;;44.78;19.25;;;;;;;11.47;71.34;100256.13;5116005;28;20048;-83
2024/02/22 05:37:48;;;;;;;38.50;19.40;;;;;;;11.68;69.33;100255.97;5115975;28;20043;-82
2024/02/22 05:40:52;;;;;;;35.35;18.35;;;;;;;11.59;69.78;100265.72;5103035;28;20047;-84
2024/02/22 05:43:58;;;;;;;40.50;19.33;;;;;;;11.61;70.69;100254.81;5103249;28;20047;-84
2024/02/22 05:47:04;;;;;;;40.30;18.27;;;;;;;11.64;70.08;100265.31;5115543;28;20035;-84
2024/02/22 05:50:09;;;;;;;39.08;18.77;;;;;;;11.57;70.84;100266.88;5114767;28;20052;-84
2024/02/22 05:53:14;;;;;;;29.90;13.75;;;;;;;11.81;68.96;100240.41;5101636;28;20044;-83
2024/02/22 05:56:18;;;;;;;34.25;14.85;;;;;;;11.79;69.65;100245.06;5116313;28;20047;-84
2024/02/22 05:59:24;;;;;;;38.28;16.88;;;;;;;11.83;69.53;100246.47;5116411;28;20047;-83
2024/02/22 06:02:28;;;;;;;41.92;18.38;;;;;;;11.89;69.29;100255.81;5115353;28;20044;-82
2024/02/22 06:05:34;;;;;;;39.03;17.75;;;;;;;11.68;70.46;100239.84;5102682;28;20382;-81
2024/02/22 06:08:42;;;;;;;36.55;18.13;;;;;;;11.57;71.04;100226.53;5115238;28;20043;-83
2024/02/22 06:11:47;;;;;;;33.10;17.88;;;;;;;11.53;72.11;100214.41;5115360;28;20047;-83
2024/02/22 06:14:52;;;;;;;31.95;17.80;;;;;;;11.75;69.94;100217.59;5115057;28;20040;-83
2024/02/22 06:17:56;;;;;;;43.78;18.90;;;;;;;11.82;70.80;100185.63;5102430;28;20047;-82
2024/02/22 06:21:02;;;;;;;38.40;19.08;;;;;;;11.82;70.98;100204.44;5114963;28;20481;-82
2024/02/22 06:24:07;;;;;;;35.28;18.17;;;;;;;11.78;70.62;100204.91;5114956;28;20040;-81
2024/02/22 06:27:12;;;;;;;38.08;18.50;;;;;;;11.63;70.93;100180.25;5114923;28;20044;-83
2024/02/22 06:30:17;;;;;;;40.50;19.67;;;;;;;11.63;71.92;100180.25;5100436;28;20052;-84
2024/02/22 06:33:24;;;;;;;38.78;20.00;;;;;;;11.69;71.15;100179.72;5114751;28;20044;-83
2024/02/22 06:36:33;;;;;;;40.47;19.40;;;;;;;11.87;69.98;100179.81;5114699;28;20053;-84
2024/02/22 06:39:39;;;;;;;40.85;20.55;;;;;;;11.83;69.99;100175.69;5115098;28;20040;-84
2024/02/22 06:42:44;;;;;;;35.65;19.20;;;;;;;11.54;70.86;100181.97;5114483;28;20047;-83
2024/02/22 06:45:49;;;;;;;34.20;17.45;;;;;;;11.37;71.58;100189.94;5114191;28;20039;-84
2024/02/22 06:48:53;;;;;;;34.42;18.23;;;;;;;11.43;72.22;100190.19;5113625;28;20040;-83
2024/02/22 06:51:58;;;;;;;36.85;17.83;;;;;;;11.52;71.90;100178.59;5114294;28;20039;-83
2024/02/22 06:55:03;;;;;;;37.00;20.30;;;;;;;11.52;72.04;100196.56;5114195;28;20047;-82
2024/02/22 06:58:08;;;;;;;31.55;16.90;;;;;;;11.45;71.77;100187.38;5114143;28;20048;-82
2024/02/22 07:01:13;;;;;;;40.15;18.63;;;;;;;11.30;73.46;100194.19;5112674;27;20424;-82
2024/02/22 07:04:18;;;;;;;36.97;20.17;;;;;;;11.65;75.35;100189.88;5112108;28;20043;-80
2024/02/22 07:07:23;;;;;;;37.30;20.48;;;;;;;11.81;75.29;100201.88;5104186;28;20044;-81
2024/02/22 07:10:28;;;;;;;33.60;18.20;;;;;;;11.82;74.19;100190.16;5106916;28;20044;-82
2024/02/22 07:13:33;;;;;;;35.47;18.40;;;;;;;11.87;73.19;100198.63;5113454;28;20044;-84
2024/02/22 07:16:40;;;;;;;35.88;18.48;;;;;;;11.90;73.95;100176.81;5104468;28;20405;-82
2024/02/22 07:19:46;;;;;;;35.53;19.63;;;;;;;11.92;73.47;100169.44;5105201;28;20048;-82
2024/02/22 07:22:52;;;;;;;38.22;20.75;;;;;;;11.65;74.79;100172.91;5099025;28;20045;-79
2024/02/22 07:25:56;;;;;;;44.38;20.15;;;;;;;11.67;74.54;100149.41;5110075;28;20386;-78
2024/02/22 07:29:02;;;;;;;39.20;20.27;;;;;;;11.77;74.36;100139.50;5105298;28;20475;-76
2024/02/22 07:32:08;;;;;;;34.35;16.38;;;;;;;11.77;74.21;100139.50;5103184;28;20036;-77
2024/02/22 07:35:16;;;;;;;33.00;17.35;;;;;;;11.80;74.29;100123.03;5080891;28;20394;-81
2024/02/22 07:38:23;;;;;;;27.83;13.65;;;;;;;12.10;70.93;100120.06;5110785;28;20040;-78
2024/02/22 07:41:27;;;;;;;27.40;14.07;;;;;;;12.34;70.68;100125.72;5108601;28;20064;-78
2024/02/22 07:44:32;;;;;;;55.95;27.23;;;;;;;12.44;70.84;100130.22;5102715;28;20043;-79
2024/02/22 07:47:36;;;;;;;36.53;17.88;;;;;;;12.43;71.86;100128.53;5112636;28;20396;-73
2024/02/22 07:50:41;;;;;;;34.30;14.40;;;;;;;12.44;72.05;100130.22;5132319;28;20047;-74
2024/02/22 07:53:46;;;;;;;32.95;16.08;;;;;;;12.50;72.09;100137.69;5133901;28;20047;-73
2024/02/22 07:56:51;;;;;;;32.47;16.88;;;;;;;12.47;72.54;100135.31;5133882;28;20035;-74
2024/02/22 07:59:57;;;;;;;32.28;16.58;;;;;;;12.46;74.69;100131.78;5134148;28;20035;-77
2024/02/22 08:03:02;;;;;;;30.15;15.82;;;;;;;12.59;75.22;100117.94;5133862;28;20047;-77
2024/02/22 08:06:06;;;;;;;35.70;18.17;;;;;;;12.78;75.20;100107.00;5133973;28;20394;-79
2024/02/22 08:09:12;;;;;;;31.58;17.25;;;;;;;13.02;74.52;100107.22;5133787;28;20484;-78
2024/02/22 08:12:16;;;;;;;32.70;16.83;;;;;;;13.12;74.26;100102.59;5133915;28;20042;-77
2024/02/22 08:15:22;;;;;;;28.77;15.57;;;;;;;13.26;73.20;100095.81;5133791;28;20043;-79
2024/02/22 08:18:27;;;;;;;27.00;14.85;;;;;;;13.31;72.99;100091.63;5133731;28;20039;-79
2024/02/22 08:21:32;;;;;;;28.40;15.75;;;;;;;13.30;72.99;100081.84;5133704;28;20051;-78
2024/02/22 08:24:36;;;;;;;35.63;16.02;;;;;;;13.22;72.42;100086.34;5133739;27;20043;-79
2024/02/22 08:27:41;;;;;;;32.72;15.82;;;;;;;13.35;73.31;100082.22;5137195;27;20047;-78
2024/02/22 08:30:46;;;;;;;29.15;15.75;;;;;;;13.73;70.47;100066.59;5137436;27;20039;-78
2024/02/22 08:33:51;;;;;;;31.15;15.65;;;;;;;13.69;70.77;100047.16;5137366;27;20043;-78
2024/02/22 08:36:55;;;;;;;28.73;15.55;;;;;;;13.83;69.68;100056.50;5137413;27;20043;-74
2024/02/22 08:39:59;;;;;;;26.00;12.60;;;;;;;13.88;69.25;100062.25;5137300;27;20051;-74
2024/02/22 08:43:04;;;;;;;27.33;13.05;;;;;;;13.89;68.47;100066.66;5137242;27;20051;-79
2024/02/22 08:46:09;;;;;;;29.63;14.40;;;;;;;13.86;68.61;100058.88;5137131;27;20389;-79
2024/02/22 08:49:14;;;;;;;34.05;15.77;;;;;;;14.01;68.18;100052.69;5136464;27;20409;-78
2024/02/22 08:52:18;;;;;;;32.13;15.35;;;;;;;14.00;67.55;100056.38;5137019;27;20043;-79
2024/02/22 08:55:24;;;;;;;39.40;17.20;;;;;;;14.05;68.52;100056.75;5136968;27;20389;-78
2024/02/22 08:58:31;;;;;;;29.48;15.68;;;;;;;14.06;68.25;100058.44;5136932;27;20043;-79
2024/02/22 09:01:36;;;;;;;33.33;17.45;;;;;;;14.11;68.41;100057.94;5136827;27;20092;-78
2024/02/22 09:04:42;;;;;;;34.28;16.98;;;;;;;14.04;68.25;100063.16;5137028;27;20051;-78
2024/02/22 09:07:49;;;;;;;35.60;15.55;;;;;;;13.80;69.16;100054.13;5136887;27;20039;-78
2024/02/22 09:10:54;;;;;;;25.65;14.65;;;;;;;13.90;69.56;100063.78;5136706;27;20039;-78
2024/02/22 09:13:59;;;;;;;29.02;14.90;;;;;;;14.11;68.71;100057.94;5136517;27;20051;-78
2024/02/22 09:17:04;;;;;;;30.23;14.15;;;;;;;14.26;67.60;100050.91;5136543;27;20043;-78
2024/02/22 09:20:09;;;;;;;23.65;12.15;;;;;;;14.02;68.54;100056.25;5123635;27;20035;-78
2024/02/22 09:23:14;;;;;;;25.50;11.90;;;;;;;14.39;66.02;100059.41;5136292;27;20047;-78
2024/02/22 09:26:21;;;;;;;22.90;10.38;;;;;;;14.48;61.97;100055.69;5136203;27;20462;-79
2024/02/22 09:29:26;;;;;;;23.90;10.40;;;;;;;14.63;60.87;100043.22;5123642;27;20039;-77
2024/02/22 09:32:31;;;;;;;25.02;11.23;;;;;;;14.77;61.16;100056.06;5136500;27;20043;-77
2024/02/22 09:35:36;;;;;;;25.77;11.27;;;;;;;14.74;61.08;100061.78;5136085;27;20035;-78
2024/02/22 09:38:41;;;;;;;25.80;9.57;;;;;;;15.07;59.86;100053.66;5135798;27;20043;-77
2024/02/22 09:41:47;;;;;;;23.13;10.27;;;;;;;15.50;58.49;100056.00;5135971;27;20058;-77
2024/02/22 09:44:51;;;;;;;21.45;9.43;;;;;;;15.65;58.32;100053.41;5135850;27;20043;-77
2024/02/22 09:47:56;;;;;;;18.30;8.80;;;;;;;15.74;58.19;100039.69;5135490;27;20059;-77
2024/02/22 09:51:04;;;;;;;15.60;6.93;;;;;;;15.81;57.89;100043.38;5135772;27;20353;-78
2024/02/22 09:54:10;;;;;;;10.68;5.68;;;;;;;16.03;57.40;100061.53;5135721;27;20378;-78
2024/02/22 09:57:16;;;;;;;9.80;5.38;;;;;;;16.12;57.17;100060.47;5135523;27;20046;-78
2024/02/22 10:00:21;;;;;;;13.30;6.30;;;;;;;16.23;56.77;100068.22;5135647;27;20054;-78
2024/02/22 10:03:31;;;;;;;11.13;4.90;;;;;;;16.26;57.38;100073.28;5135513;27;20058;-78
2024/02/22 10:06:35;;;;;;;11.82;4.15;;;;;;;16.32;56.65;100070.88;5135409;27;20496;-78
2024/02/22 10:09:44;;;;;;;7.20;2.20;;;;;;;16.09;54.27;100081.66;5135463;27;20042;-78
2024/02/22 10:12:49;;;;;;;7.90;4.05;;;;;;;16.21;55.11;100074.81;5135306;27;20046;-78
2024/02/22 10:15:54;;;;;;;20.92;9.18;;;;;;;16.11;59.02;100069.63;5135413;27;20046;-78
2024/02/22 10:19:00;;;;;;;21.40;10.15;;;;;;;16.21;59.73;100078.38;5135183;27;20050;-79
2024/02/22 10:22:05;;;;;;;18.45;8.50;;;;;;;16.19;60.28;100072.31;5134801;27;20043;-78
2024/02/22 10:25:14;;;;;;;15.90;8.45;;;;;;;16.17;60.48;100065.38;5110865;27;20389;-78
2024/02/22 10:28:19;;;;;;;19.67;8.63;;;;;;;16.26;60.44;100075.13;5134999;27;20066;-79
2024/02/22 10:31:25;;;;;;;13.02;6.75;;;;;;;16.37;59.33;100079.31;5134903;27;20050;-78
2024/02/22 10:34:31;;;;;;;9.82;4.70;;;;;;;16.14;56.96;100068.44;5134941;27;20039;-79
2024/02/22 10:37:36;;;;;;;9.32;3.80;;;;;;;16.35;56.23;100073.22;5134954;27;20476;-78
2024/02/22 10:40:44;;;;;;;10.02;3.58;;;;;;;16.42;55.48;100060.66;5134971;27;20069;-78
2024/02/22 10:44:09;;;;;;;14.43;6.30;;;;;;;16.25;57.73;100055.31;5031874;28;20049;-78
2024/02/22 10:47:14;;;;;;;17.52;8.07;;;;;;;16.18;59.44;100048.94;5031464;28;20057;-77
2024/02/22 10:50:22;;;;;;;14.10;6.82;;;;;;;16.15;59.05;100035.75;5012094;28;20053;-78
2024/02/22 10:53:27;;;;;;;13.93;4.20;;;;;;;15.83;56.02;100041.31;5011722;28;20057;-78
2024/02/22 10:56:33;;;;;;;7.25;2.00;;;;;;;15.92;52.82;100047.56;5011956;28;20176;-78
2024/02/22 10:59:40;;;;;;;4.90;2.15;;;;;;;15.83;51.22;100035.91;5012121;28;20049;-78
2024/02/22 11:02:45;;;;;;;3.90;1.42;;;;;;;15.86;49.07;100030.16;5011879;28;20432;-78
2024/02/22 11:05:53;;;;;;;4.35;1.38;;;;;;;15.90;48.82;100020.66;5012065;28;20057;-78
2024/02/22 11:09:04;;;;;;;3.95;1.10;;;;;;;15.76;48.56;100005.16;5012151;28;20129;-78
2024/02/22 11:12:13;;;;;;;5.80;1.30;;;;;;;16.10;48.58;100000.25;5011869;28;20161;-78
2024/02/22 11:15:20;;;;;;;4.82;1.10;;;;;;;15.97;49.28;99994.56;5012127;28;20474;-78
2024/02/22 11:18:25;;;;;;;3.63;1.20;;;;;;;15.74;49.81;100003.66;5011728;28;20061;-78
2024/02/22 11:21:30;;;;;;;9.02;2.72;;;;;;;15.69;49.53;100001.47;5094776;28;20056;-78
2024/02/22 11:24:34;;;;;;;8.10;1.90;;;;;;;15.84;50.04;99988.91;5101384;28;20486;-79
2024/02/22 11:27:39;;;;;;;5.28;2.35;;;;;;;15.80;49.61;99987.53;5114405;28;20066;-78
2024/02/22 11:30:46;;;;;;;5.43;2.05;;;;;;;15.84;49.66;99991.59;5114061;28;20055;-78
2024/02/22 11:33:52;;;;;;;8.60;3.17;;;;;;;15.93;49.09;99985.09;5113972;28;20062;-78
2024/02/22 11:37:10;;;;;;;7.97;1.52;;;;;;;15.94;48.77;99981.41;5113972;28;20055;-78
2024/02/22 11:40:18;;;;;;;4.03;1.40;;;;;;;16.10;48.55;99972.31;5113892;28;20121;-77
2024/02/22 11:43:26;;;;;;;7.65;1.50;;;;;;;16.04;49.25;99954.94;5113864;28;20055;-77
2024/02/22 11:46:38;;;;;;;2.45;1.00;;;;;;;15.93;49.29;99960.75;5113833;28;20126;-78
2024/02/22 11:49:44;;;;;;;2.83;1.10;;;;;;;15.94;49.78;99948.91;5132868;28;20050;-79
2024/02/22 11:52:49;;;;;;;4.00;1.13;;;;;;;16.15;49.61;99932.00;5134277;28;20375;-78
2024/02/22 11:55:54;;;;;;;5.63;1.40;;;;;;;16.21;49.44;99913.19;5134215;28;20492;-79
2024/02/22 11:59:00;;;;;;;4.88;1.05;;;;;;;16.15;49.36;99899.50;5121596;27;20047;-79
2024/02/22 12:02:06;;;;;;;6.38;1.23;;;;;;;15.98;50.34;99898.78;5138074;27;20058;-79
2024/02/22 12:05:12;;;;;;;5.93;1.00;;;;;;;15.94;50.46;99886.66;5138189;27;20069;-80
2024/02/22 12:08:19;;;;;;;4.35;1.50;;;;;;;15.82;50.33;99879.13;5137789;27;20389;-79
2024/02/22 12:11:24;;;;;;;2.85;1.02;;;;;;;16.14;49.75;99873.47;5125322;27;20054;-79
2024/02/22 12:14:30;;;;;;;5.72;1.30;;;;;;;15.76;50.65;99864.44;5137937;27;20050;-78
2024/02/22 12:17:35;;;;;;;2.13;0.80;;;;;;;15.86;50.93;99870.47;5137791;27;20481;-78
2024/02/22 12:20:40;;;;;;;9.00;2.45;;;;;;;15.71;51.73;99869.53;5137879;27;20050;-78
2024/02/22 12:23:44;;;;;;;4.40;1.00;;;;;;;15.85;51.96;99862.53;5137807;27;20049;-79
2024/02/22 12:26:52;;;;;;;5.38;2.45;;;;;;;15.78;51.91;99858.84;5137494;27;20389;-79
2024/02/22 12:29:58;;;;;;;3.92;1.55;;;;;;;15.88;51.84;99835.94;5137754;27;20050;-78
2024/02/22 12:33:08;;;;;;;4.18;1.85;;;;;;;16.03;51.18;99838.69;5137661;27;20058;-79
2024/02/22 12:36:13;;;;;;;7.97;2.90;;;;;;;16.05;51.49;99842.91;5137547;27;20058;-78
2024/02/22 12:39:19;;;;;;;10.30;4.68;;;;;;;16.00;51.66;99848.00;5125018;27;20393;-78
2024/02/22 12:42:24;;;;;;;22.65;10.73;;;;;;;16.00;52.32;99831.75;5137401;27;20393;-79
2024/02/22 12:45:29;;;;;;;8.80;2.25;;;;;;;15.92;51.63;99823.75;5137446;27;20046;-78
2024/02/22 12:48:34;;;;;;;6.45;1.25;;;;;;;15.94;49.86;99818.13;5136978;27;20405;-80
2024/02/22 12:51:39;;;;;;;5.22;1.15;;;;;;;15.92;50.11;99822.88;5137276;27;20497;-79
2024/02/22 12:54:43;;;;;;;4.05;1.77;;;;;;;15.88;51.40;99810.72;5137227;27;20373;-80
2024/02/22 12:57:48;;;;;;;3.17;1.15;;;;;;;15.95;51.43;99788.16;5137175;27;20043;-79
2024/02/22 13:00:53;;;;;;;5.18;1.55;;;;;;;16.12;51.12;99789.69;5137258;27;20046;-79
2024/02/22 13:03:59;;;;;;;5.30;1.50;;;;;;;16.29;51.30;99784.97;5137070;27;20058;-80
2024/02/22 13:07:04;;;;;;;4.50;1.10;;;;;;;16.35;51.36;99765.25;5137033;27;20038;-79
2024/02/22 13:10:09;;;;;;;4.72;1.40;;;;;;;16.20;51.27;99758.97;5136658;27;20042;-79
2024/02/22 13:13:15;;;;;;;3.40;1.30;;;;;;;16.31;51.45;99753.13;5136535;27;20046;-79
2024/02/22 13:16:26;;;;;;;4.18;1.58;;;;;;;16.38;50.99;99750.50;5136813;27;20058;-79
2024/02/22 13:19:31;;;;;;;3.67;1.50;;;;;;;16.46;50.63;99745.84;5136444;27;20393;-80
2024/02/22 13:22:35;;;;;;;3.65;1.40;;;;;;;16.47;50.98;99749.38;5136600;27;20062;-79
2024/02/22 13:25:40;;;;;;;3.92;1.63;;;;;;;16.42;52.50;99735.56;5136696;27;20050;-79
2024/02/22 13:28:45;;;;;;;22.13;11.00;;;;;;;16.21;60.31;99730.88;5136693;27;20050;-79
2024/02/22 13:31:50;;;;;;;23.90;15.43;;;;;;;15.91;63.88;99726.47;5136517;27;20394;-79
2024/02/22 13:34:55;;;;;;;25.95;16.33;;;;;;;15.92;64.58;99723.59;5136635;27;20046;-80
2024/02/22 13:38:00;;;;;;;27.08;16.42;;;;;;;15.73;65.53;99707.84;5136420;27;20477;-79
2024/02/22 13:41:05;;;;;;;31.02;18.58;;;;;;;15.64;67.40;99695.44;5136400;27;20054;-79
2024/02/22 13:44:09;;;;;;;29.05;19.80;;;;;;;15.57;68.05;99689.91;5136341;27;20386;-79
2024/02/22 13:47:14;;;;;;;29.30;18.25;;;;;;;15.48;68.95;99693.69;5136223;27;20058;-79
2024/02/22 13:50:19;;;;;;;33.58;19.48;;;;;;;15.39;70.31;99689.34;5136202;27;20066;-79
2024/02/22 13:53:24;;;;;;;33.65;20.20;;;;;;;15.31;71.74;99691.25;5136111;27;20058;-79
2024/02/22 13:56:28;;;;;;;31.48;20.58;;;;;;;15.33;72.41;99681.94;5136135;27;20054;-79
2024/02/22 13:59:33;;;;;;;33.85;23.38;;;;;;;15.26;73.43;99675.59;5136038;27;20046;-79
2024/02/22 14:02:38;;;;;;;43.13;25.63;;;;;;;15.31;74.89;99675.03;5135839;27;20493;-77
2024/02/22 14:05:43;;;;;;;40.60;25.88;;;;;;;15.36;75.28;99672.63;5135830;27;20046;-77
2024/02/22 14:08:48;;;;;;;40.25;26.58;;;;;;;15.21;76.80;99678.00;5135887;27;20394;-78
2024/02/22 14:11:52;;;;;;;38.60;26.13;;;;;;;15.05;77.70;99677.28;5135803;27;20053;-78